createdAt,value
2018-05-03T00:00:56.278Z,0.00
2018-05-03T00:01:56.376Z,0.00
2018-05-03T00:02:56.272Z,0.00
2018-05-03T00:03:56.269Z,0.00
2018-05-03T00:04:56.267Z,0.00
2018-05-03T00:05:56.261Z,0.00
2018-05-03T00:06:56.258Z,0.00
2018-05-03T00:07:56.258Z,0.00
2018-05-03T00:08:56.254Z,0.00
2018-05-03T00:09:56.253Z,0.00
2018-05-03T00:10:56.248Z,0.00
2018-05-03T00:11:56.246Z,0.00
2018-05-03T00:12:56.244Z,0.00
2018-05-03T00:13:56.241Z,0.00
2018-05-03T00:14:56.239Z,0.00
2018-05-03T00:15:56.236Z,0.00
2018-05-03T00:16:56.233Z,0.00
2018-05-03T00:17:56.230Z,0.00
2018-05-03T00:18:56.225Z,0.00
2018-05-03T00:19:56.224Z,0.00
2018-05-03T00:20:56.225Z,0.00
2018-05-03T00:21:56.222Z,0.00
2018-05-03T00:22:56.216Z,0.00
2018-05-03T00:23:56.213Z,0.00
2018-05-03T00:24:56.210Z,0.00
2018-05-03T00:25:56.209Z,0.00
2018-05-03T00:26:56.204Z,0.00
2018-05-03T00:27:56.202Z,0.00
2018-05-03T00:28:56.199Z,0.00
2018-05-03T00:29:56.195Z,0.00
2018-05-03T00:30:56.192Z,0.00
2018-05-03T00:31:56.191Z,0.00
2018-05-03T00:32:56.188Z,0.00
2018-05-03T00:33:56.185Z,0.00
2018-05-03T00:34:56.178Z,0.00
2018-05-03T00:35:56.181Z,0.00
2018-05-03T00:36:56.178Z,0.00
2018-05-03T00:37:56.174Z,0.00
2018-05-03T00:38:56.171Z,0.00
2018-05-03T00:39:56.169Z,0.00
2018-05-03T00:40:56.164Z,0.00
2018-05-03T00:41:56.162Z,0.00
2018-05-03T00:42:56.158Z,0.00
2018-05-03T00:43:56.157Z,0.00
2018-05-03T00:44:56.158Z,0.00
2018-05-03T00:45:56.154Z,0.00
2018-05-03T00:46:56.147Z,0.00
2018-05-03T00:47:56.144Z,0.00
2018-05-03T00:48:56.194Z,0.00
2018-05-03T00:49:56.141Z,0.00
2018-05-03T00:50:56.135Z,0.00
2018-05-03T00:51:56.131Z,0.00
2018-05-03T00:52:56.133Z,0.00
2018-05-03T00:53:56.128Z,0.00
2018-05-03T00:54:56.122Z,0.00
2018-05-03T00:55:56.121Z,0.00
2018-05-03T00:56:56.118Z,0.00
2018-05-03T00:57:56.116Z,0.00
2018-05-03T00:58:56.112Z,0.00
2018-05-03T00:59:56.110Z,0.00
2018-05-03T01:00:56.106Z,0.00
2018-05-03T01:01:56.104Z,0.00
2018-05-03T01:02:56.101Z,0.00
2018-05-03T01:03:56.104Z,0.00
2018-05-03T01:04:56.093Z,0.00
2018-05-03T01:05:56.094Z,0.00
2018-05-03T01:06:56.089Z,0.00
2018-05-03T01:07:56.086Z,0.00
2018-05-03T01:08:56.084Z,0.00
2018-05-03T01:09:56.089Z,0.00
2018-05-03T01:10:56.081Z,0.00
2018-05-03T01:11:56.074Z,0.00
2018-05-03T01:12:56.071Z,0.00
2018-05-03T01:13:56.071Z,0.00
2018-05-03T01:14:56.066Z,0.00
2018-05-03T01:15:56.065Z,0.00
2018-05-03T01:16:56.061Z,0.00
2018-05-03T01:17:56.059Z,0.00
2018-05-03T01:18:56.062Z,0.00
2018-05-03T01:19:56.052Z,0.00
2018-05-03T01:20:56.052Z,0.00
2018-05-03T01:21:56.049Z,0.00
2018-05-03T01:22:56.044Z,0.00
2018-05-03T01:23:56.046Z,0.00
2018-05-03T01:24:56.042Z,0.00
2018-05-03T01:25:56.036Z,0.00
2018-05-03T01:26:56.037Z,0.00
2018-05-03T01:27:56.032Z,0.00
2018-05-03T01:28:56.030Z,0.00
2018-05-03T01:29:56.033Z,0.00
2018-05-03T01:30:56.023Z,0.00
2018-05-03T01:31:56.019Z,0.00
2018-05-03T01:32:56.017Z,0.00
2018-05-03T01:33:56.015Z,0.00
2018-05-03T01:34:56.013Z,0.00
2018-05-03T01:35:56.013Z,0.00
2018-05-03T01:36:56.004Z,0.00
2018-05-03T01:37:56.008Z,0.00
2018-05-03T01:38:56.003Z,0.00
2018-05-03T01:39:55.999Z,0.00
2018-05-03T01:40:55.996Z,0.00
2018-05-03T01:41:55.994Z,0.00
2018-05-03T01:42:55.990Z,0.00
2018-05-03T01:43:55.989Z,0.00
2018-05-03T01:44:55.986Z,0.00
2018-05-03T01:45:55.981Z,0.00
2018-05-03T01:46:55.979Z,0.00
2018-05-03T01:47:55.977Z,0.00
2018-05-03T01:48:55.976Z,0.00
2018-05-03T01:49:55.973Z,0.00
2018-05-03T01:50:55.970Z,0.00
2018-05-03T01:51:55.967Z,0.00
2018-05-03T01:52:55.965Z,0.00
2018-05-03T01:53:55.981Z,0.00
2018-05-03T01:54:55.959Z,0.00
2018-05-03T01:55:55.956Z,0.00
2018-05-03T01:56:55.954Z,0.00
2018-05-03T01:57:55.955Z,0.00
2018-05-03T01:58:55.949Z,0.00
2018-05-03T01:59:55.945Z,0.00
2018-05-03T02:00:55.942Z,0.00
2018-05-03T02:01:55.969Z,0.00
2018-05-03T02:02:55.937Z,0.00
2018-05-03T02:03:55.934Z,0.00
2018-05-03T02:04:55.932Z,0.00
2018-05-03T02:05:55.936Z,0.00
2018-05-03T02:06:55.927Z,0.00
2018-05-03T02:07:55.928Z,0.00
2018-05-03T02:08:55.920Z,0.00
2018-05-03T02:09:55.922Z,0.00
2018-05-03T02:10:55.915Z,0.00
2018-05-03T02:11:55.913Z,0.00
2018-05-03T02:12:55.909Z,0.00
2018-05-03T02:13:55.908Z,0.00
2018-05-03T02:14:55.903Z,0.00
2018-05-03T02:15:55.901Z,0.00
2018-05-03T02:16:55.898Z,0.00
2018-05-03T02:17:55.897Z,0.00
2018-05-03T02:18:55.893Z,0.00
2018-05-03T02:19:55.890Z,0.00
2018-05-03T02:20:55.888Z,0.00
2018-05-03T02:21:55.885Z,0.00
2018-05-03T02:22:55.881Z,0.00
2018-05-03T02:23:55.880Z,0.00
2018-05-03T02:24:55.876Z,0.00
2018-05-03T02:25:55.874Z,0.00
2018-05-03T02:26:55.873Z,0.00
2018-05-03T02:27:55.869Z,0.00
2018-05-03T02:28:55.870Z,0.00
2018-05-03T02:29:55.865Z,0.00
2018-05-03T02:30:55.859Z,0.00
2018-05-03T02:31:55.858Z,0.00
2018-05-03T02:32:55.854Z,0.00
2018-05-03T02:33:55.852Z,0.00
2018-05-03T02:34:55.850Z,0.00
2018-05-03T02:35:55.846Z,0.00
2018-05-03T02:36:55.843Z,0.00
2018-05-03T02:37:55.842Z,0.00
2018-05-03T02:38:55.841Z,0.00
2018-05-03T02:39:55.833Z,0.00
2018-05-03T02:40:55.833Z,0.00
2018-05-03T02:41:55.827Z,0.00
2018-05-03T02:42:55.821Z,0.00
2018-05-03T02:43:55.821Z,0.00
2018-05-03T02:44:55.818Z,0.00
2018-05-03T02:45:55.814Z,0.00
2018-05-03T02:46:55.811Z,0.00
2018-05-03T02:47:55.808Z,0.00
2018-05-03T02:48:55.809Z,0.00
2018-05-03T02:49:55.800Z,0.00
2018-05-03T02:50:55.797Z,0.00
2018-05-03T02:51:55.799Z,0.00
2018-05-03T02:52:55.797Z,0.00
2018-05-03T02:53:55.788Z,0.00
2018-05-03T02:54:55.789Z,0.00
2018-05-03T02:55:55.784Z,0.00
2018-05-03T02:56:55.779Z,0.00
2018-05-03T02:57:55.809Z,0.00
2018-05-03T02:58:55.771Z,0.00
2018-05-03T02:59:55.772Z,0.00
2018-05-03T03:00:55.771Z,0.00
2018-05-03T03:01:55.760Z,0.00
2018-05-03T03:02:55.759Z,0.00
2018-05-03T03:03:55.760Z,4.00
2018-05-03T03:04:55.752Z,4.00
2018-05-03T03:05:55.747Z,0.00
2018-05-03T03:06:55.752Z,4.00
2018-05-03T03:07:55.746Z,4.00
2018-05-03T03:08:55.738Z,4.00
2018-05-03T03:09:55.735Z,4.00
2018-05-03T03:10:55.728Z,8.00
2018-05-03T03:11:55.731Z,8.00
2018-05-03T03:12:55.725Z,8.00
2018-05-03T03:13:55.721Z,12.00
2018-05-03T03:14:55.715Z,8.00
2018-05-03T03:15:55.718Z,8.00
2018-05-03T03:16:55.710Z,8.00
2018-05-03T03:17:55.706Z,8.00
2018-05-03T03:18:55.703Z,12.00
2018-05-03T03:19:55.703Z,8.00
2018-05-03T03:20:55.697Z,12.00
2018-05-03T03:21:55.751Z,12.00
2018-05-03T03:22:55.691Z,20.00
2018-05-03T03:23:55.693Z,20.00
2018-05-03T03:24:55.689Z,24.00
2018-05-03T03:25:55.681Z,32.00
2018-05-03T03:26:55.683Z,36.00
2018-05-03T03:27:55.675Z,44.00
2018-05-03T03:28:55.673Z,52.00
2018-05-03T03:29:55.669Z,56.00
2018-05-03T03:30:55.665Z,64.00
2018-05-03T03:31:55.665Z,68.00
2018-05-03T03:32:55.659Z,76.00
2018-05-03T03:33:55.657Z,80.00
2018-05-03T03:34:55.652Z,84.00
2018-05-03T03:35:55.650Z,88.00
2018-05-03T03:36:55.646Z,96.00
2018-05-03T03:37:55.645Z,100.00
2018-05-03T03:38:55.645Z,108.00
2018-05-03T03:39:55.641Z,120.00
2018-05-03T03:40:55.633Z,128.00
2018-05-03T03:41:55.631Z,140.00
2018-05-03T03:42:55.625Z,152.00
2018-05-03T03:43:55.630Z,160.00
2018-05-03T03:44:55.618Z,172.00
2018-05-03T03:45:55.618Z,184.00
2018-05-03T03:46:55.615Z,196.00
2018-05-03T03:47:55.614Z,212.00
2018-05-03T03:48:55.607Z,228.00
2018-05-03T03:49:55.604Z,240.00
2018-05-03T03:50:55.602Z,256.00
2018-05-03T03:51:55.598Z,272.00
2018-05-03T03:52:55.593Z,292.00
2018-05-03T03:53:55.596Z,304.00
2018-05-03T03:54:55.587Z,324.00
2018-05-03T03:55:55.585Z,340.00
2018-05-03T03:56:55.579Z,360.00
2018-05-03T03:57:55.577Z,380.00
2018-05-03T03:58:55.573Z,396.00
2018-05-03T03:59:55.573Z,408.00
2018-05-03T04:00:55.568Z,428.00
2018-05-03T04:01:55.564Z,448.00
2018-05-03T04:02:55.559Z,472.00
2018-05-03T04:03:55.557Z,504.00
2018-05-03T04:04:55.556Z,556.00
2018-05-03T04:05:55.551Z,596.00
2018-05-03T04:06:55.547Z,620.00
2018-05-03T04:07:55.545Z,644.00
2018-05-03T04:08:55.541Z,684.00
2018-05-03T04:09:55.541Z,732.00
2018-05-03T04:10:55.534Z,784.00
2018-05-03T04:11:55.535Z,836.00
2018-05-03T04:12:55.528Z,888.00
2018-05-03T04:13:55.526Z,928.00
2018-05-03T04:14:55.521Z,952.00
2018-05-03T04:15:55.516Z,960.00
2018-05-03T04:16:55.515Z,984.00
2018-05-03T04:17:55.515Z,1012.00
2018-05-03T04:18:55.509Z,1032.00
2018-05-03T04:19:55.507Z,1040.00
2018-05-03T04:20:55.502Z,1072.00
2018-05-03T04:21:55.501Z,1092.00
2018-05-03T04:22:55.495Z,1092.00
2018-05-03T04:23:55.492Z,1104.00
2018-05-03T04:24:55.490Z,1124.00
2018-05-03T04:25:55.487Z,1192.00
2018-05-03T04:26:55.481Z,1272.00
2018-05-03T04:27:55.478Z,1428.00
2018-05-03T04:28:55.475Z,1572.00
2018-05-03T04:29:55.495Z,1652.00
2018-05-03T04:30:55.470Z,1692.00
2018-05-03T04:31:55.467Z,1856.00
2018-05-03T04:32:55.462Z,1956.00
2018-05-03T04:33:55.495Z,2008.00
2018-05-03T04:34:55.476Z,2056.00
2018-05-03T04:35:55.453Z,2076.00
2018-05-03T04:36:55.454Z,2104.00
2018-05-03T04:37:55.449Z,2088.00
2018-05-03T04:38:55.443Z,1988.00
2018-05-03T04:39:55.448Z,1916.00
2018-05-03T04:40:55.439Z,1900.00
2018-05-03T04:41:55.435Z,1860.00
2018-05-03T04:42:55.430Z,1812.00
2018-05-03T04:43:55.429Z,1716.00
2018-05-03T04:44:55.426Z,1668.00
2018-05-03T04:45:55.424Z,1656.00
2018-05-03T04:46:55.507Z,1672.00
2018-05-03T04:47:55.418Z,1704.00
2018-05-03T04:48:55.416Z,1720.00
2018-05-03T04:49:55.412Z,1744.00
2018-05-03T04:50:55.412Z,1712.00
2018-05-03T04:51:55.405Z,1640.00
2018-05-03T04:52:55.401Z,1716.00
2018-05-03T04:53:55.401Z,1744.00
2018-05-03T04:54:55.399Z,1720.00
2018-05-03T04:55:55.394Z,1756.00
2018-05-03T04:56:55.394Z,1808.00
2018-05-03T04:57:55.387Z,1784.00
2018-05-03T04:58:55.385Z,1784.00
2018-05-03T04:59:55.382Z,1832.00
2018-05-03T05:00:55.381Z,1928.00
2018-05-03T05:01:55.378Z,1988.00
2018-05-03T05:02:55.377Z,1980.00
2018-05-03T05:03:55.369Z,1932.00
2018-05-03T05:04:55.368Z,1896.00
2018-05-03T05:05:55.365Z,1896.00
2018-05-03T05:06:55.362Z,1852.00
2018-05-03T05:07:55.360Z,1900.00
2018-05-03T05:08:55.358Z,1944.00
2018-05-03T05:09:55.352Z,1976.00
2018-05-03T05:10:55.350Z,1984.00
2018-05-03T05:11:55.348Z,1952.00
2018-05-03T05:12:55.347Z,1896.00
2018-05-03T05:13:55.344Z,1940.00
2018-05-03T05:14:55.339Z,2056.00
2018-05-03T05:15:55.338Z,2100.00
2018-05-03T05:16:55.335Z,2180.00
2018-05-03T05:17:55.418Z,2164.00
2018-05-03T05:18:55.330Z,1996.00
2018-05-03T05:19:55.328Z,2048.00
2018-05-03T05:20:55.400Z,2156.00
2018-05-03T05:21:55.323Z,2188.00
2018-05-03T05:22:55.319Z,2268.00
2018-05-03T05:23:55.316Z,2328.00
2018-05-03T05:24:55.316Z,2432.00
2018-05-03T05:25:55.314Z,2400.00
2018-05-03T05:26:55.309Z,2284.00
2018-05-03T05:27:55.305Z,2268.00
2018-05-03T05:28:55.302Z,2452.00
2018-05-03T05:29:55.303Z,2648.00
2018-05-03T05:30:55.304Z,2856.00
2018-05-03T05:31:55.295Z,2936.00
2018-05-03T05:32:55.295Z,3028.00
2018-05-03T05:33:55.293Z,3244.00
2018-05-03T05:34:55.288Z,3076.00
2018-05-03T05:35:55.286Z,2952.00
2018-05-03T05:36:55.287Z,2872.00
2018-05-03T05:37:55.284Z,2688.00
2018-05-03T05:38:55.334Z,2572.00
2018-05-03T05:39:55.277Z,2656.00
2018-05-03T05:40:55.280Z,2680.00
2018-05-03T05:41:55.275Z,2760.00
2018-05-03T05:42:55.277Z,2872.00
2018-05-03T05:43:55.272Z,3176.00
2018-05-03T05:44:55.280Z,3240.00
2018-05-03T05:45:55.267Z,3256.00
2018-05-03T05:46:55.263Z,3296.00
2018-05-03T05:47:55.260Z,3384.00
2018-05-03T05:48:55.262Z,3600.00
2018-05-03T05:49:55.259Z,3640.00
2018-05-03T05:50:55.258Z,3916.00
2018-05-03T05:51:55.261Z,4280.00
2018-05-03T05:52:55.251Z,4108.00
2018-05-03T05:53:55.249Z,4244.00
2018-05-03T05:54:55.250Z,3740.00
2018-05-03T05:55:55.245Z,3332.00
2018-05-03T05:56:55.244Z,3072.00
2018-05-03T05:57:55.242Z,2592.00
2018-05-03T05:58:55.313Z,2468.00
2018-05-03T05:59:55.239Z,2396.00
2018-05-03T06:00:55.240Z,2248.00
2018-05-03T06:01:55.241Z,2172.00
2018-05-03T06:02:55.231Z,2356.00
2018-05-03T06:03:55.230Z,2496.00
2018-05-03T06:04:55.243Z,2484.00
2018-05-03T06:05:55.226Z,2392.00
2018-05-03T06:06:55.223Z,2300.00
2018-05-03T06:07:55.226Z,2232.00
2018-05-03T06:08:55.222Z,2276.00
2018-05-03T06:09:55.287Z,2424.00
2018-05-03T06:10:55.220Z,2672.00
2018-05-03T06:11:55.216Z,3028.00
2018-05-03T06:12:55.214Z,3236.00
2018-05-03T06:13:55.219Z,3232.00
2018-05-03T06:14:55.213Z,3492.00
2018-05-03T06:15:55.214Z,4136.00
2018-05-03T06:16:55.208Z,4188.00
2018-05-03T06:17:55.207Z,3924.00
2018-05-03T06:18:55.202Z,3812.00
2018-05-03T06:19:55.202Z,3800.00
2018-05-03T06:20:55.204Z,3748.00
2018-05-03T06:21:55.199Z,3680.00
2018-05-03T06:22:55.203Z,3628.00
2018-05-03T06:23:55.199Z,3684.00
2018-05-03T06:24:55.196Z,3792.00
2018-05-03T06:25:55.209Z,4032.00
2018-05-03T06:26:55.192Z,4216.00
2018-05-03T06:27:55.190Z,4092.00
2018-05-03T06:28:55.192Z,4468.00
2018-05-03T06:29:55.187Z,4972.00
2018-05-03T06:30:55.187Z,5660.00
2018-05-03T06:31:55.229Z,7208.00
2018-05-03T06:32:55.187Z,10004.00
2018-05-03T06:33:55.182Z,6936.00
2018-05-03T06:34:55.180Z,6308.00
2018-05-03T06:35:55.215Z,5768.00
2018-05-03T06:36:55.178Z,5376.00
2018-05-03T06:37:55.180Z,4572.00
2018-05-03T06:38:55.259Z,4140.00
2018-05-03T06:39:55.174Z,3788.00
2018-05-03T06:40:55.174Z,3652.00
2018-05-03T06:41:55.181Z,3864.00
2018-05-03T06:42:55.171Z,3900.00
2018-05-03T06:43:55.169Z,3836.00
2018-05-03T06:44:55.170Z,3700.00
2018-05-03T06:45:55.173Z,3452.00
2018-05-03T06:46:55.167Z,3508.00
2018-05-03T06:47:55.168Z,3576.00
2018-05-03T06:48:55.167Z,3640.00
2018-05-03T06:49:55.163Z,3696.00
2018-05-03T06:50:55.162Z,4120.00
2018-05-03T06:51:55.163Z,4792.00
2018-05-03T06:52:55.160Z,11288.00
2018-05-03T06:53:55.162Z,5052.00
2018-05-03T06:54:55.162Z,4872.00
2018-05-03T06:55:55.156Z,4912.00
2018-05-03T06:56:55.151Z,5188.00
2018-05-03T06:57:55.154Z,4904.00
2018-05-03T06:58:55.154Z,4536.00
2018-05-03T06:59:55.152Z,4432.00
2018-05-03T07:00:55.150Z,4176.00
2018-05-03T07:01:55.151Z,4080.00
2018-05-03T07:02:55.148Z,3980.00
2018-05-03T07:03:55.224Z,3992.00
2018-05-03T07:04:55.146Z,4132.00
2018-05-03T07:05:55.141Z,3972.00
2018-05-03T07:06:55.141Z,3796.00
2018-05-03T07:07:55.143Z,3816.00
2018-05-03T07:08:55.145Z,3860.00
2018-05-03T07:09:55.229Z,3960.00
2018-05-03T07:10:55.141Z,3864.00
2018-05-03T07:11:55.137Z,3744.00
2018-05-03T07:12:55.136Z,3960.00
2018-05-03T07:13:55.137Z,4168.00
2018-05-03T07:14:55.132Z,4044.00
2018-05-03T07:15:55.140Z,3908.00
2018-05-03T07:16:55.131Z,3932.00
2018-05-03T07:17:55.137Z,3972.00
2018-05-03T07:18:55.129Z,4132.00
2018-05-03T07:19:55.126Z,4196.00
2018-05-03T07:20:55.132Z,4376.00
2018-05-03T07:21:55.123Z,5012.00
2018-05-03T07:22:55.121Z,5424.00
2018-05-03T07:23:55.185Z,5556.00
2018-05-03T07:24:55.119Z,5656.00
2018-05-03T07:25:55.118Z,6032.00
2018-05-03T07:26:55.117Z,6348.00
2018-05-03T07:27:55.113Z,6700.00
2018-05-03T07:28:55.115Z,7196.00
2018-05-03T07:29:56.618Z,7360.00
2018-05-03T07:30:55.111Z,7088.00
2018-05-03T07:31:55.109Z,6988.00
2018-05-03T07:32:55.108Z,7348.00
2018-05-03T07:33:55.114Z,7788.00
2018-05-03T07:34:55.109Z,8524.00
2018-05-03T07:35:55.103Z,8712.00
2018-05-03T07:36:55.103Z,8384.00
2018-05-03T07:37:55.098Z,7860.00
2018-05-03T07:38:55.107Z,7608.00
2018-05-03T07:39:55.102Z,7856.00
2018-05-03T07:40:55.109Z,7420.00
2018-05-03T07:41:55.097Z,6640.00
2018-05-03T07:42:55.100Z,6240.00
2018-05-03T07:43:55.096Z,6644.00
2018-05-03T07:44:55.097Z,7196.00
2018-05-03T07:45:55.097Z,7136.00
2018-05-03T07:46:55.096Z,6884.00
2018-05-03T07:47:55.096Z,6992.00
2018-05-03T07:48:55.091Z,7240.00
2018-05-03T07:49:55.094Z,7492.00
2018-05-03T07:50:55.093Z,7436.00
2018-05-03T07:51:55.093Z,7360.00
2018-05-03T07:52:55.110Z,7204.00
2018-05-03T07:53:55.104Z,7044.00
2018-05-03T07:54:55.091Z,6920.00
2018-05-03T07:55:55.091Z,7124.00
2018-05-03T07:56:55.093Z,7488.00
2018-05-03T07:57:55.092Z,7684.00
2018-05-03T07:58:55.094Z,7812.00
2018-05-03T07:59:55.089Z,7956.00
2018-05-03T08:00:55.093Z,7948.00
2018-05-03T08:01:55.098Z,7884.00
2018-05-03T08:02:55.094Z,7772.00
2018-05-03T08:03:55.092Z,7760.00
2018-05-03T08:04:55.128Z,7652.00
2018-05-03T08:05:55.099Z,7444.00
2018-05-03T08:06:55.111Z,7524.00
2018-05-03T08:07:55.108Z,7600.00
2018-05-03T08:08:55.119Z,7812.00
2018-05-03T08:09:55.118Z,8056.00
2018-05-03T08:10:55.124Z,8072.00
2018-05-03T08:11:55.143Z,8616.00
2018-05-03T08:12:55.148Z,8772.00
2018-05-03T08:13:55.150Z,9112.00
2018-05-03T08:14:55.154Z,9784.00
2018-05-03T08:15:55.159Z,11288.00
2018-05-03T08:16:55.175Z,11636.00
2018-05-03T08:17:55.169Z,13196.00
2018-05-03T08:18:55.171Z,16160.00
2018-05-03T08:19:55.175Z,24448.00
2018-05-03T08:20:55.182Z,28960.00
2018-05-03T08:21:55.188Z,43648.00
2018-05-03T08:22:55.190Z,26176.00
2018-05-03T08:23:55.196Z,21024.00
2018-05-03T08:24:55.201Z,37152.00
2018-05-03T08:25:55.208Z,24608.00
2018-05-03T08:26:55.214Z,35584.00
2018-05-03T08:27:55.223Z,40800.00
2018-05-03T08:28:55.225Z,50144.00
2018-05-03T08:29:55.231Z,55232.00
2018-05-03T08:30:55.239Z,68192.00
2018-05-03T08:31:55.341Z,66016.00
2018-05-03T08:32:55.250Z,64416.00
2018-05-03T08:33:55.255Z,64512.00
2018-05-03T08:34:55.260Z,64832.00
2018-05-03T08:35:55.264Z,65504.00
2018-05-03T08:36:55.271Z,63968.00
2018-05-03T08:37:55.275Z,62304.00
2018-05-03T08:38:55.255Z,62176.00
2018-05-03T08:39:55.261Z,58720.00
2018-05-03T08:40:55.271Z,45408.00
2018-05-03T08:41:55.269Z,16896.00
2018-05-03T08:42:55.281Z,11580.00
2018-05-03T08:43:55.289Z,19552.00
2018-05-03T08:44:55.286Z,42464.00
2018-05-03T08:45:55.293Z,50240.00
2018-05-03T08:46:55.294Z,40896.00
2018-05-03T08:47:55.300Z,59040.00
2018-05-03T08:48:55.306Z,62144.00
2018-05-03T08:49:55.331Z,64768.00
2018-05-03T08:50:55.317Z,62848.00
2018-05-03T08:51:55.323Z,58336.00
2018-05-03T08:52:55.331Z,38656.00
2018-05-03T08:53:55.333Z,11996.00
2018-05-03T08:54:55.335Z,6436.00
2018-05-03T08:55:55.339Z,6276.00
2018-05-03T08:56:55.354Z,6064.00
2018-05-03T08:57:55.347Z,5700.00
2018-05-03T08:58:55.336Z,5536.00
2018-05-03T08:59:55.343Z,5404.00
2018-05-03T09:00:55.362Z,5296.00
2018-05-03T09:01:55.405Z,5216.00
2018-05-03T09:02:55.358Z,5136.00
2018-05-03T09:03:55.360Z,5100.00
2018-05-03T09:04:55.362Z,5068.00
2018-05-03T09:05:55.368Z,5044.00
2018-05-03T09:06:55.370Z,5000.00
2018-05-03T09:07:55.424Z,4988.00
2018-05-03T09:08:55.394Z,4984.00
2018-05-03T09:09:55.403Z,4960.00
2018-05-03T09:10:55.354Z,4944.00
2018-05-03T09:11:55.361Z,4904.00
2018-05-03T09:12:55.362Z,4884.00
2018-05-03T09:13:55.381Z,4884.00
2018-05-03T09:14:55.370Z,4908.00
2018-05-03T09:15:55.374Z,4936.00
2018-05-03T09:16:55.378Z,4972.00
2018-05-03T09:17:55.383Z,4972.00
2018-05-03T09:18:55.387Z,4960.00
2018-05-03T09:19:55.391Z,4968.00
2018-05-03T09:20:55.396Z,4932.00
2018-05-03T09:21:55.399Z,4908.00
2018-05-03T09:22:55.402Z,4924.00
2018-05-03T09:23:55.406Z,4936.00
2018-05-03T09:24:55.410Z,4920.00
2018-05-03T09:25:55.413Z,4892.00
2018-05-03T09:26:55.419Z,4860.00
2018-05-03T09:27:55.421Z,4844.00
2018-05-03T09:28:55.424Z,4808.00
2018-05-03T09:29:55.428Z,4752.00
2018-05-03T09:30:55.432Z,4700.00
2018-05-03T09:31:55.435Z,4676.00
2018-05-03T09:32:55.439Z,4664.00
2018-05-03T09:33:55.294Z,4668.00
2018-05-03T09:34:55.299Z,4620.00
2018-05-03T09:35:55.298Z,4592.00
2018-05-03T09:36:55.297Z,4524.00
2018-05-03T09:37:55.297Z,4484.00
2018-05-03T09:38:55.297Z,4484.00
2018-05-03T09:39:55.297Z,4508.00
2018-05-03T09:40:55.302Z,4504.00
2018-05-03T09:41:55.300Z,4504.00
2018-05-03T09:42:55.306Z,4484.00
2018-05-03T09:43:55.302Z,4484.00
2018-05-03T09:44:55.305Z,4460.00
2018-05-03T09:45:55.305Z,4436.00
2018-05-03T09:46:55.306Z,4432.00
2018-05-03T09:47:55.307Z,4376.00
2018-05-03T09:48:55.305Z,4360.00
2018-05-03T09:49:55.308Z,4388.00
2018-05-03T09:50:55.309Z,4412.00
2018-05-03T09:51:55.353Z,4500.00
2018-05-03T09:52:55.311Z,4544.00
2018-05-03T09:53:55.312Z,4456.00
2018-05-03T09:54:55.334Z,4420.00
2018-05-03T09:55:55.316Z,4420.00
2018-05-03T09:56:55.319Z,4412.00
2018-05-03T09:57:55.319Z,4416.00
2018-05-03T09:58:55.317Z,4404.00
2018-05-03T09:59:55.318Z,4392.00
2018-05-03T10:00:55.319Z,4408.00
2018-05-03T10:01:55.324Z,4400.00
2018-05-03T10:02:55.327Z,4384.00
2018-05-03T10:03:55.327Z,4380.00
2018-05-03T10:04:55.405Z,4392.00
2018-05-03T10:05:55.323Z,4416.00
2018-05-03T10:06:55.330Z,4456.00
2018-05-03T10:07:55.331Z,4472.00
2018-05-03T10:08:55.357Z,4508.00
2018-05-03T10:09:55.327Z,4536.00
2018-05-03T10:10:55.329Z,4592.00
2018-05-03T10:11:55.334Z,4660.00
2018-05-03T10:12:55.333Z,4772.00
2018-05-03T10:13:55.335Z,4976.00
2018-05-03T10:14:55.331Z,4784.00
2018-05-03T10:15:55.335Z,5056.00
2018-05-03T10:16:55.339Z,6428.00
2018-05-03T10:17:55.342Z,7560.00
2018-05-03T10:18:55.335Z,8244.00
2018-05-03T10:19:55.338Z,8104.00
2018-05-03T10:20:55.342Z,7768.00
2018-05-03T10:21:55.345Z,7728.00
2018-05-03T10:22:55.346Z,7792.00
2018-05-03T10:23:55.347Z,7424.00
2018-05-03T10:24:55.350Z,7404.00
2018-05-03T10:25:55.352Z,7176.00
2018-05-03T10:26:55.351Z,7140.00
2018-05-03T10:27:55.367Z,7176.00
2018-05-03T10:28:55.355Z,6676.00
2018-05-03T10:29:55.441Z,5216.00
2018-05-03T10:30:55.356Z,4556.00
2018-05-03T10:31:55.357Z,4360.00
2018-05-03T10:32:55.362Z,4316.00
2018-05-03T10:33:55.370Z,4308.00
2018-05-03T10:34:55.360Z,4308.00
2018-05-03T10:35:55.404Z,4332.00
2018-05-03T10:36:55.373Z,4296.00
2018-05-03T10:37:55.369Z,4380.00
2018-05-03T10:38:55.373Z,4600.00
2018-05-03T10:39:55.368Z,4664.00
2018-05-03T10:40:55.373Z,4740.00
2018-05-03T10:41:55.446Z,5056.00
2018-05-03T10:42:55.384Z,5468.00
2018-05-03T10:43:55.381Z,5804.00
2018-05-03T10:44:55.378Z,6224.00
2018-05-03T10:45:55.437Z,6020.00
2018-05-03T10:46:55.773Z,5464.00
2018-05-03T10:47:55.444Z,5328.00
2018-05-03T10:48:55.393Z,5252.00
2018-05-03T10:49:55.393Z,4732.00
2018-05-03T10:50:55.393Z,4380.00
2018-05-03T10:51:55.389Z,4552.00
2018-05-03T10:52:55.392Z,4896.00
2018-05-03T10:53:55.391Z,5012.00
2018-05-03T10:54:55.394Z,4976.00
2018-05-03T10:55:55.396Z,5012.00
2018-05-03T10:56:55.397Z,4812.00
2018-05-03T10:57:55.399Z,4520.00
2018-05-03T10:58:55.399Z,4388.00
2018-05-03T10:59:55.474Z,4356.00
2018-05-03T11:00:55.409Z,4284.00
2018-05-03T11:01:55.407Z,4216.00
2018-05-03T11:02:55.413Z,4228.00
2018-05-03T11:03:55.408Z,4284.00
2018-05-03T11:04:55.408Z,4504.00
2018-05-03T11:05:55.416Z,4688.00
2018-05-03T11:06:55.412Z,4700.00
2018-05-03T11:07:55.412Z,4500.00
2018-05-03T11:08:55.418Z,4408.00
2018-05-03T11:09:55.416Z,4552.00
2018-05-03T11:10:55.421Z,4612.00
2018-05-03T11:11:55.419Z,4616.00
2018-05-03T11:12:55.421Z,4728.00
2018-05-03T11:13:55.424Z,4828.00
2018-05-03T11:14:55.423Z,4772.00
2018-05-03T11:15:55.426Z,4724.00
2018-05-03T11:16:55.430Z,4748.00
2018-05-03T11:17:55.430Z,4852.00
2018-05-03T11:18:55.427Z,4960.00
2018-05-03T11:19:55.433Z,4916.00
2018-05-03T11:20:55.436Z,4796.00
2018-05-03T11:21:55.514Z,4712.00
2018-05-03T11:22:55.437Z,4636.00
2018-05-03T11:23:55.437Z,4224.00
2018-05-03T11:24:55.441Z,4064.00
2018-05-03T11:25:55.463Z,4272.00
2018-05-03T11:26:55.442Z,4368.00
2018-05-03T11:27:55.448Z,4224.00
2018-05-03T11:28:55.525Z,4176.00
2018-05-03T11:29:55.454Z,4500.00
2018-05-03T11:30:55.448Z,4840.00
2018-05-03T11:31:55.451Z,5644.00
2018-05-03T11:32:55.452Z,6428.00
2018-05-03T11:33:55.457Z,7116.00
2018-05-03T11:34:55.458Z,7480.00
2018-05-03T11:35:55.459Z,7924.00
2018-05-03T11:36:55.493Z,8188.00
2018-05-03T11:37:55.461Z,8252.00
2018-05-03T11:38:55.462Z,8132.00
2018-05-03T11:39:55.477Z,7944.00
2018-05-03T11:40:55.468Z,7760.00
2018-05-03T11:41:55.467Z,7672.00
2018-05-03T11:42:55.469Z,7524.00
2018-05-03T11:43:55.470Z,7076.00
2018-05-03T11:44:55.475Z,6472.00
2018-05-03T11:45:55.476Z,6128.00
2018-05-03T11:46:55.476Z,6144.00
2018-05-03T11:47:55.475Z,6316.00
2018-05-03T11:48:55.481Z,6488.00
2018-05-03T11:49:55.483Z,6636.00
2018-05-03T11:50:55.499Z,6536.00
2018-05-03T11:51:55.489Z,6200.00
2018-05-03T11:52:55.487Z,6104.00
2018-05-03T11:53:55.491Z,6276.00
2018-05-03T11:54:55.490Z,6656.00
2018-05-03T11:55:55.495Z,6776.00
2018-05-03T11:56:55.498Z,6544.00
2018-05-03T11:57:55.497Z,6196.00
2018-05-03T11:58:55.500Z,6196.00
2018-05-03T11:59:55.518Z,6352.00
2018-05-03T12:00:55.501Z,6588.00
2018-05-03T12:01:55.506Z,6616.00
2018-05-03T12:02:55.508Z,6560.00
2018-05-03T12:03:55.509Z,6296.00
2018-05-03T12:04:55.511Z,6148.00
2018-05-03T12:05:55.559Z,6572.00
2018-05-03T12:06:55.515Z,6444.00
2018-05-03T12:07:55.517Z,6352.00
2018-05-03T12:08:55.568Z,6128.00
2018-05-03T12:09:55.522Z,5592.00
2018-05-03T12:10:55.522Z,4696.00
2018-05-03T12:11:55.525Z,4008.00
2018-05-03T12:12:55.528Z,3704.00
2018-05-03T12:13:55.529Z,3600.00
2018-05-03T12:14:55.529Z,3512.00
2018-05-03T12:15:55.533Z,3620.00
2018-05-03T12:16:55.535Z,3856.00
2018-05-03T12:17:55.536Z,3852.00
2018-05-03T12:18:55.538Z,4012.00
2018-05-03T12:19:55.540Z,3620.00
2018-05-03T12:20:55.544Z,3712.00
2018-05-03T12:21:55.544Z,3856.00
2018-05-03T12:22:55.545Z,3920.00
2018-05-03T12:23:55.548Z,3612.00
2018-05-03T12:24:55.550Z,3372.00